Time;durP1;ratioP1;P1;durP2;ratioP2;P2;SDS_P1;SDS_P2;PMS_P1;PMS_P2;Temp;Humidity;BMP_temperature;BMP_pressure;BME280_temperature;BME280_humidity;BME280_pressure;Samples;Min_cycle;Max_cycle;Signal;HPM_P1;HPM_P2
2023/09/07 00:00:36;;;;;;;12.73;5.60;;;18.40;62.20;;;;;;4936169;29;20275;-72
2023/09/07 00:03:04;;;;;;;20.67;5.70;;;18.70;61.00;;;;;;4935741;29;20192;-74
2023/09/07 00:05:32;;;;;;;9.60;4.93;;;18.80;60.90;;;;;;4933864;29;20233;-74
2023/09/07 00:07:59;;;;;;;13.07;5.03;;;19.00;59.40;;;;;;4935287;29;20267;-72
2023/09/07 00:10:27;;;;;;;15.03;5.03;;;19.20;59.50;;;;;;4934972;29;20238;-73
2023/09/07 00:12:54;;;;;;;15.73;5.03;;;19.30;59.00;;;;;;4936924;29;20279;-75
2023/09/07 00:15:22;;;;;;;13.80;5.23;;;19.70;58.30;;;;;;4938217;29;20188;-73
2023/09/07 00:17:51;;;;;;;12.27;4.63;;;19.90;56.90;;;;;;4935906;29;20328;-74
2023/09/07 00:20:19;;;;;;;11.27;5.07;;;19.90;56.60;;;;;;4936600;29;20183;-74
2023/09/07 00:22:46;;;;;;;14.90;5.30;;;20.00;57.00;;;;;;4941004;29;20666;-72
2023/09/07 00:25:13;;;;;;;15.57;4.93;;;20.30;55.60;;;;;;4936515;29;20222;-73
2023/09/07 00:27:41;;;;;;;11.60;5.00;;;20.30;56.10;;;;;;4939920;29;20282;-73
2023/09/07 00:30:09;;;;;;;14.70;5.27;;;20.50;55.20;;;;;;4944990;29;20180;-74
2023/09/07 00:32:40;;;;;;;12.90;4.80;;;20.30;55.40;;;;;;4947530;29;20209;-73
2023/09/07 00:35:10;;;;;;;14.73;7.40;;;20.40;55.00;;;;;;4951561;29;20255;-73
2023/09/07 00:37:38;;;;;;;14.13;5.73;;;20.70;54.60;;;;;;4948454;29;20244;-72
2023/09/07 00:40:08;;;;;;;17.00;5.43;;;20.60;54.10;;;;;;4945684;29;20631;-73
2023/09/07 00:42:37;;;;;;;17.67;5.60;;;20.80;54.40;;;;;;4946816;29;20184;-72
2023/09/07 00:45:05;;;;;;;14.23;5.70;;;20.80;54.00;;;;;;4949684;29;20223;-73
2023/09/07 00:47:37;;;;;;;18.20;5.73;;;20.80;54.40;;;;;;4942516;29;20188;-73
2023/09/07 00:50:06;;;;;;;16.93;6.13;;;21.00;54.30;;;;;;4943213;29;20240;-72
2023/09/07 00:52:34;;;;;;;16.03;7.43;;;21.00;53.40;;;;;;4941513;29;20211;-72
2023/09/07 00:55:05;;;;;;;21.10;6.67;;;21.00;53.40;;;;;;4942021;29;20194;-74
2023/09/07 00:57:33;;;;;;;22.47;7.47;;;21.00;54.30;;;;;;4936741;29;20547;-72
2023/09/07 01:00:00;;;;;;;20.23;8.53;;;21.00;54.70;;;;;;4936456;29;20666;-74
2023/09/07 01:02:29;;;;;;;22.97;11.23;;;21.20;54.90;;;;;;4928314;29;20192;-72
2023/09/07 01:04:56;;;;;;;27.00;13.13;;;21.40;54.40;;;;;;4936162;29;20248;-73
2023/09/07 01:07:47;;;;;;;29.43;15.93;;;21.60;53.90;;;;;;4937457;29;20218;-73
2023/09/07 01:10:14;;;;;;;28.93;17.03;;;21.60;53.10;;;;;;4929648;29;20283;-73
2023/09/07 01:12:42;;;;;;;32.93;21.07;;;21.50;54.40;;;;;;4929320;29;20279;-72
2023/09/07 01:15:10;;;;;;;43.43;23.40;;;21.90;53.80;;;;;;4933095;29;20188;-72
2023/09/07 01:17:38;;;;;;;37.23;23.80;;;21.80;53.70;;;;;;4927607;29;20591;-72
2023/09/07 01:20:09;;;;;;;37.10;19.93;;;21.90;53.40;;;;;;4931208;29;20263;-73
2023/09/07 01:22:39;;;;;;;33.00;19.60;;;22.10;53.30;;;;;;4927861;29;20637;-71
2023/09/07 01:25:07;;;;;;;25.13;15.60;;;22.10;52.80;;;;;;4928496;29;20213;-73
2023/09/07 01:27:35;;;;;;;24.43;12.10;;;22.30;52.20;;;;;;4928986;29;20184;-73
2023/09/07 01:30:03;;;;;;;29.23;12.63;;;22.30;53.00;;;;;;4929501;29;20172;-72
2023/09/07 01:32:34;;;;;;;20.73;10.17;;;22.40;52.50;;;;;;4933407;29;20183;-72
2023/09/07 01:35:05;;;;;;;15.57;8.93;;;22.50;52.30;;;;;;4934449;29;20552;-71
2023/09/07 01:37:32;;;;;;;17.17;8.80;;;22.80;52.40;;;;;;4935265;29;20252;-73
2023/09/07 01:40:00;;;;;;;24.60;15.10;;;23.00;51.40;;;;;;4916517;29;20184;-72
2023/09/07 01:42:28;;;;;;;31.47;20.10;;;23.30;50.90;;;;;;4927900;29;20184;-73
2023/09/07 01:44:55;;;;;;;38.47;23.83;;;23.60;49.80;;;;;;4933257;29;20175;-71
2023/09/07 01:47:22;;;;;;;32.87;22.30;;;23.30;50.00;;;;;;4933746;29;20200;-72
2023/09/07 01:49:49;;;;;;;27.90;17.70;;;23.30;50.50;;;;;;4934985;29;20206;-73
2023/09/07 01:52:17;;;;;;;22.23;13.47;;;23.30;49.70;;;;;;4934543;29;20243;-71
2023/09/07 01:54:44;;;;;;;18.73;10.60;;;23.20;49.80;;;;;;4934839;29;20176;-73
2023/09/07 01:57:11;;;;;;;16.00;8.40;;;23.40;50.00;;;;;;4934643;29;20542;-72
2023/09/07 01:59:39;;;;;;;15.20;8.63;;;23.50;49.20;;;;;;4929929;29;20176;-73
2023/09/07 02:02:06;;;;;;;16.90;8.57;;;23.30;49.10;;;;;;4931937;29;20275;-72
2023/09/07 02:04:34;;;;;;;14.10;8.83;;;23.10;49.60;;;;;;4929068;29;20601;-71
2023/09/07 02:07:02;;;;;;;21.03;9.77;;;23.10;50.40;;;;;;4934856;29;20295;-69
2023/09/07 02:09:29;;;;;;;17.43;8.93;;;22.90;50.10;;;;;;4931533;29;20207;-72
2023/09/07 02:11:56;;;;;;;22.47;11.10;;;22.90;50.60;;;;;;4929928;29;20262;-72
2023/09/07 02:14:24;;;;;;;21.50;11.33;;;22.90;50.60;;;;;;4932136;29;20218;-72
2023/09/07 02:16:51;;;;;;;19.70;11.67;;;23.00;49.80;;;;;;4936695;29;20643;-72
2023/09/07 02:19:19;;;;;;;23.07;12.60;;;22.90;49.60;;;;;;4937781;28;20183;-70
2023/09/07 02:21:46;;;;;;;19.67;11.93;;;23.40;49.20;;;;;;4936396;29;20646;-71
2023/09/07 02:24:13;;;;;;;21.20;10.53;;;23.50;48.40;;;;;;4936159;29;20523;-71
2023/09/07 02:26:44;;;;;;;20.53;13.10;;;23.50;49.10;;;;;;4937403;29;20219;-72
2023/09/07 02:29:13;;;;;;;20.60;13.27;;;23.70;48.40;;;;;;4933057;29;20267;-72
2023/09/07 02:31:43;;;;;;;26.60;15.00;;;23.80;48.30;;;;;;4938347;29;20184;-71
2023/09/07 02:34:10;;;;;;;32.50;17.90;;;24.00;47.40;;;;;;4935618;29;20307;-70
2023/09/07 02:36:38;;;;;;;23.50;13.40;;;24.20;47.70;;;;;;4936691;29;20259;-72
2023/09/07 02:39:08;;;;;;;21.40;11.47;;;24.40;47.40;;;;;;4936503;29;20218;-71
2023/09/07 02:41:35;;;;;;;18.10;10.67;;;24.60;47.70;;;;;;4935110;29;20192;-71
2023/09/07 02:44:02;;;;;;;16.53;10.10;;;24.90;47.10;;;;;;4936555;29;20205;-72
2023/09/07 02:46:30;;;;;;;21.80;10.40;;;25.00;47.40;;;;;;4936905;29;20227;-69
2023/09/07 02:49:00;;;;;;;16.53;10.70;;;24.80;47.50;;;;;;4937132;29;20215;-73
2023/09/07 02:51:28;;;;;;;19.90;9.37;;;24.80;48.30;;;;;;4934572;29;20200;-72
2023/09/07 02:53:57;;;;;;;12.80;8.30;;;25.10;47.90;;;;;;4936676;29;20578;-71
2023/09/07 02:56:25;;;;;;;21.30;8.20;;;25.40;47.30;;;;;;4919812;29;20211;-73
2023/09/07 02:58:52;;;;;;;15.23;9.40;;;25.20;47.90;;;;;;4936407;29;20192;-73
2023/09/07 03:01:20;;;;;;;21.37;10.00;;;25.30;47.40;;;;;;4934879;29;20654;-70
2023/09/07 03:03:48;;;;;;;14.33;7.90;;;25.30;48.00;;;;;;4934689;29;20198;-73
2023/09/07 03:06:16;;;;;;;18.27;7.40;;;25.00;48.20;;;;;;4932741;29;20204;-71
2023/09/07 03:08:44;;;;;;;19.97;7.90;;;24.90;48.70;;;;;;4933673;29;20176;-72
2023/09/07 03:11:12;;;;;;;17.40;7.77;;;24.80;49.10;;;;;;4937066;29;20663;-71
2023/09/07 03:13:39;;;;;;;13.00;6.93;;;24.90;48.90;;;;;;4934689;29;20548;-73
2023/09/07 03:16:07;;;;;;;15.87;7.67;;;24.50;49.90;;;;;;4935171;29;20220;-71
2023/09/07 03:18:34;;;;;;;20.43;6.57;;;24.60;49.60;;;;;;4935887;29;20192;-72
2023/09/07 03:21:04;;;;;;;19.30;7.50;;;24.80;49.30;;;;;;4936034;29;20693;-72
2023/09/07 03:23:32;;;;;;;14.17;7.17;;;24.80;49.20;;;;;;4936146;29;20606;-72
2023/09/07 03:26:00;;;;;;;15.00;6.60;;;24.80;48.80;;;;;;4935737;29;20220;-71
2023/09/07 03:28:28;;;;;;;14.60;6.63;;;24.50;49.30;;;;;;4936256;29;20823;-73
2023/09/07 03:30:55;;;;;;;11.37;5.90;;;24.50;49.20;;;;;;4935269;29;20180;-72
2023/09/07 03:33:23;;;;;;;13.23;6.13;;;24.70;48.60;;;;;;4935882;29;20216;-71
2023/09/07 03:35:51;;;;;;;15.40;6.07;;;25.00;47.60;;;;;;4933900;29;20266;-72
2023/09/07 03:38:19;;;;;;;12.47;6.87;;;25.30;46.20;;;;;;4932276;29;20248;-72
2023/09/07 03:40:46;;;;;;;14.70;7.13;;;25.30;47.00;;;;;;4935811;29;20187;-70
2023/09/07 03:43:13;;;;;;;13.63;6.70;;;25.30;46.50;;;;;;4934283;29;20214;-72
2023/09/07 03:45:44;;;;;;;11.63;6.03;;;25.10;47.00;;;;;;4935769;29;20242;-73
2023/09/07 03:48:11;;;;;;;21.80;6.87;;;25.20;46.70;;;;;;4935872;29;20963;-70
2023/09/07 03:50:39;;;;;;;15.47;6.60;;;25.50;45.60;;;;;;4933214;29;20192;-74
2023/09/07 03:53:06;;;;;;;18.07;5.83;;;25.40;45.50;;;;;;4936083;29;20192;-70
2023/09/07 03:55:42;;;;;;;13.17;6.17;;;25.10;45.70;;;;;;4936592;29;20200;-72
2023/09/07 03:58:12;;;;;;;11.70;5.10;;;25.30;45.00;;;;;;4935935;29;20184;-72
2023/09/07 04:00:44;;;;;;;17.10;5.90;;;25.30;45.50;;;;;;4933451;29;20177;-72
2023/09/07 04:03:11;;;;;;;10.43;4.67;;;25.50;44.50;;;;;;4936653;29;20638;-71
2023/09/07 04:05:39;;;;;;;13.60;5.13;;;25.50;45.00;;;;;;4934763;29;20223;-72
2023/09/07 04:08:07;;;;;;;9.50;5.20;;;25.60;45.00;;;;;;4935518;29;20255;-71
2023/09/07 04:10:37;;;;;;;14.57;4.73;;;25.60;45.60;;;;;;4936399;29;20240;-71
2023/09/07 04:13:04;;;;;;;12.13;4.93;;;25.80;46.00;;;;;;4936480;29;20188;-71
2023/09/07 04:15:33;;;;;;;11.07;4.07;;;25.90;46.70;;;;;;4936209;29;20235;-72
2023/09/07 04:18:01;;;;;;;15.47;5.27;;;25.30;49.10;;;;;;4936432;29;20643;-71
2023/09/07 04:20:29;;;;;;;12.10;5.23;;;25.30;49.70;;;;;;4935541;29;20207;-72
2023/09/07 04:22:56;;;;;;;13.07;5.40;;;25.00;50.80;;;;;;4936572;29;20192;-71
2023/09/07 04:25:23;;;;;;;16.70;5.03;;;25.50;50.20;;;;;;4935802;29;20216;-72
2023/09/07 04:27:51;;;;;;;11.50;5.33;;;25.80;50.10;;;;;;4933771;29;20243;-71
2023/09/07 04:30:18;;;;;;;13.50;4.70;;;26.10;49.30;;;;;;4936104;29;20184;-71
2023/09/07 04:32:46;;;;;;;16.43;5.23;;;26.30;49.60;;;;;;4936526;29;20200;-72
2023/09/07 04:35:13;;;;;;;16.73;5.50;;;26.30;49.10;;;;;;4935982;29;20240;-72
2023/09/07 04:37:46;;;;;;;12.37;5.37;;;26.60;48.30;;;;;;4936265;29;20619;-71
2023/09/07 04:40:14;;;;;;;12.90;4.47;;;27.10;46.50;;;;;;4936519;29;20551;-72
2023/09/07 04:42:41;;;;;;;12.83;4.57;;;27.00;47.30;;;;;;4938132;29;20191;-72
2023/09/07 04:45:14;;;;;;;13.70;4.20;;;26.80;48.30;;;;;;4942369;29;20196;-71
2023/09/07 04:47:42;;;;;;;18.70;4.37;;;26.80;47.80;;;;;;4939373;29;20662;-69
2023/09/07 04:50:10;;;;;;;20.77;4.63;;;26.90;47.30;;;;;;4936694;29;20192;-70
2023/09/07 04:52:37;;;;;;;9.57;4.47;;;26.60;48.50;;;;;;4938571;29;20763;-69
2023/09/07 04:55:05;;;;;;;13.00;4.07;;;27.20;47.50;;;;;;4930012;29;20256;-72
2023/09/07 04:57:32;;;;;;;11.57;4.57;;;27.00;46.90;;;;;;4934584;29;20252;-70
2023/09/07 05:00:00;;;;;;;13.47;4.23;;;26.80;47.90;;;;;;4936139;29;20196;-70
2023/09/07 05:02:27;;;;;;;12.87;4.60;;;26.90;48.50;;;;;;4936419;29;20215;-73
2023/09/07 05:04:54;;;;;;;29.23;15.30;;;27.40;46.80;;;;;;4935884;29;20187;-70
2023/09/07 05:07:22;;;;;;;22.37;14.80;;;27.10;48.80;;;;;;4935159;29;20200;-71
2023/09/07 05:09:49;;;;;;;12.27;4.77;;;27.10;48.20;;;;;;4935775;29;20686;-72
2023/09/07 05:12:18;;;;;;;13.27;4.60;;;26.70;49.20;;;;;;4935224;29;20298;-73
2023/09/07 05:14:45;;;;;;;15.83;4.97;;;26.80;48.90;;;;;;4938822;29;20681;-71
2023/09/07 05:17:13;;;;;;;11.93;4.83;;;26.70;48.90;;;;;;4932463;29;20227;-73
2023/09/07 05:19:40;;;;;;;14.43;4.63;;;26.90;48.50;;;;;;4927883;29;20196;-72
2023/09/07 05:22:08;;;;;;;11.43;4.50;;;26.30;50.00;;;;;;4934236;29;20283;-72
2023/09/07 05:24:38;;;;;;;11.80;4.77;;;26.80;49.30;;;;;;4934147;29;20219;-70
2023/09/07 05:27:06;;;;;;;12.30;4.70;;;26.80;47.70;;;;;;4933191;29;20237;-71
2023/09/07 05:29:33;;;;;;;9.47;4.63;;;27.00;47.60;;;;;;4931820;29;20271;-71
2023/09/07 05:32:00;;;;;;;11.80;4.33;;;26.50;49.10;;;;;;4931286;29;20484;-73
2023/09/07 05:34:29;;;;;;;10.77;4.50;;;26.40;49.10;;;;;;4932959;29;20327;-71
2023/09/07 05:36:57;;;;;;;13.30;4.97;;;27.20;47.70;;;;;;4934040;29;20203;-72
2023/09/07 05:39:24;;;;;;;14.73;4.90;;;27.30;47.80;;;;;;4935662;29;20341;-73
2023/09/07 05:41:51;;;;;;;15.17;4.53;;;27.00;48.80;;;;;;4933861;29;20190;-69
2023/09/07 05:44:19;;;;;;;13.60;5.03;;;26.30;50.20;;;;;;4917697;29;20198;-73
2023/09/07 05:46:47;;;;;;;16.50;5.10;;;26.50;50.60;;;;;;4934178;29;20230;-71
2023/09/07 05:49:14;;;;;;;15.27;4.60;;;26.90;49.50;;;;;;4934124;29;20188;-72
2023/09/07 05:51:42;;;;;;;11.57;4.43;;;26.90;49.80;;;;;;4935323;29;20196;-73
2023/09/07 05:54:09;;;;;;;9.60;4.27;;;27.30;49.40;;;;;;4901710;29;20191;-70
2023/09/07 05:56:37;;;;;;;8.80;4.17;;;26.80;51.30;;;;;;4934372;29;20219;-72
2023/09/07 05:59:04;;;;;;;11.83;3.87;;;26.40;52.20;;;;;;4933816;29;20183;-71
2023/09/07 06:01:31;;;;;;;11.03;4.43;;;26.30;52.40;;;;;;4928747;29;20199;-71
2023/09/07 06:04:00;;;;;;;15.30;5.10;;;26.60;52.60;;;;;;4934579;29;20176;-73
2023/09/07 06:06:27;;;;;;;18.37;4.83;;;26.70;51.90;;;;;;4934198;29;20315;-72
2023/09/07 06:08:55;;;;;;;9.87;3.93;;;26.80;51.80;;;;;;4934043;29;20200;-73
2023/09/07 06:11:22;;;;;;;14.40;4.40;;;26.60;52.80;;;;;;4933928;29;20227;-73
2023/09/07 06:13:49;;;;;;;12.97;4.37;;;26.90;52.50;;;;;;4933725;29;20274;-72
2023/09/07 06:16:17;;;;;;;20.37;5.00;;;27.00;52.30;;;;;;4933982;29;20203;-72
2023/09/07 06:18:44;;;;;;;12.43;4.13;;;26.70;53.40;;;;;;4933964;29;20240;-72
2023/09/07 06:21:12;;;;;;;13.83;4.70;;;26.80;52.10;;;;;;4933771;29;20259;-72
2023/09/07 06:23:39;;;;;;;16.40;4.97;;;26.80;52.30;;;;;;4916815;29;20656;-73
2023/09/07 06:26:06;;;;;;;14.63;4.57;;;26.70;52.70;;;;;;4933879;29;20247;-72
2023/09/07 06:28:34;;;;;;;19.20;5.07;;;26.80;53.10;;;;;;4934046;29;20184;-72
2023/09/07 06:31:01;;;;;;;14.00;4.63;;;26.30;53.50;;;;;;4933934;29;20592;-72
2023/09/07 06:33:28;;;;;;;13.07;5.00;;;26.30;53.40;;;;;;4933930;29;20188;-73
2023/09/07 06:36:00;;;;;;;17.10;4.60;;;25.90;54.10;;;;;;4932436;29;20271;-72
2023/09/07 06:38:28;;;;;;;15.37;4.53;;;25.90;54.10;;;;;;4933353;29;20244;-71
2023/09/07 06:40:56;;;;;;;13.17;4.27;;;25.90;53.80;;;;;;4915982;29;20191;-72
2023/09/07 06:43:23;;;;;;;11.87;5.03;;;25.70;54.50;;;;;;4932094;29;20255;-71
2023/09/07 06:45:50;;;;;;;11.30;4.63;;;25.30;55.30;;;;;;4938992;29;20227;-72
2023/09/07 06:48:18;;;;;;;11.43;4.03;;;24.50;58.10;;;;;;4933747;29;20202;-72
2023/09/07 06:50:45;;;;;;;12.80;3.80;;;24.60;57.80;;;;;;4933433;29;20268;-70
2023/09/07 06:53:12;;;;;;;11.33;4.73;;;24.00;60.00;;;;;;4933164;29;20204;-72
2023/09/07 06:55:39;;;;;;;21.33;5.90;;;23.40;61.70;;;;;;4933172;29;20200;-73
2023/09/07 06:58:07;;;;;;;12.23;4.23;;;23.40;62.10;;;;;;4933310;29;20553;-73
2023/09/07 07:00:35;;;;;;;16.00;4.83;;;24.00;60.50;;;;;;4929849;29;20543;-72
2023/09/07 07:03:02;;;;;;;18.17;4.93;;;23.90;60.60;;;;;;4932345;29;20195;-71
2023/09/07 07:05:30;;;;;;;15.47;4.00;;;23.80;60.90;;;;;;4934301;29;20215;-71
2023/09/07 07:07:58;;;;;;;16.77;4.53;;;23.50;61.90;;;;;;4936859;29;20184;-70
2023/09/07 07:10:26;;;;;;;17.83;4.90;;;23.50;62.30;;;;;;4937099;29;20250;-72
2023/09/07 07:12:53;;;;;;;17.83;4.77;;;23.30;62.90;;;;;;4920987;29;20203;-72
2023/09/07 07:15:20;;;;;;;14.93;4.30;;;22.90;64.10;;;;;;4936539;29;20196;-73
2023/09/07 07:17:48;;;;;;;17.17;4.50;;;22.60;65.50;;;;;;4937785;29;20238;-73
2023/09/07 07:20:15;;;;;;;15.10;4.17;;;22.40;66.30;;;;;;4937082;29;20195;-70
2023/09/07 07:22:42;;;;;;;13.60;4.40;;;22.20;67.10;;;;;;4936377;29;20255;-73
2023/09/07 07:25:11;;;;;;;15.83;4.83;;;22.10;67.40;;;;;;4935785;29;20663;-72
2023/09/07 07:27:38;;;;;;;15.40;4.57;;;22.00;68.00;;;;;;4935005;29;20244;-71
2023/09/07 07:30:06;;;;;;;20.77;5.13;;;21.90;68.50;;;;;;4935391;29;20194;-72
2023/09/07 07:32:33;;;;;;;22.37;4.73;;;21.80;68.80;;;;;;4935611;29;20183;-72
2023/09/07 07:35:01;;;;;;;14.40;4.43;;;21.80;69.20;;;;;;4937030;29;20702;-72
2023/09/07 07:38:09;;;;;;;21.40;5.47;;;21.70;69.60;;;;;;4934087;29;20279;-72
2023/09/07 07:47:19;;;;;;;18.37;5.00;;;21.40;70.70;;;;;;4870110;29;20233;-72
2023/09/07 07:49:47;;;;;;;18.23;4.97;;;21.40;70.70;;;;;;4925924;29;20196;-72
2023/09/07 07:52:14;;;;;;;18.93;4.83;;;21.40;70.90;;;;;;4935971;29;20200;-71
2023/09/07 07:54:42;;;;;;;22.80;4.73;;;21.30;71.10;;;;;;4934607;29;20196;-71
2023/09/07 07:57:09;;;;;;;20.27;4.90;;;21.30;71.30;;;;;;4934788;29;20530;-72
2023/09/07 07:59:37;;;;;;;19.40;4.80;;;21.30;71.50;;;;;;4934892;29;20610;-72
2023/09/07 08:02:05;;;;;;;19.00;4.80;;;21.30;71.30;;;;;;4933921;29;20214;-73
2023/09/07 08:04:34;;;;;;;22.07;5.30;;;21.20;71.50;;;;;;4929883;29;20202;-72
2023/09/07 08:07:06;;;;;;;19.00;5.00;;;21.20;71.30;;;;;;4932513;29;20237;-71
2023/09/07 08:09:34;;;;;;;16.27;5.40;;;21.20;71.20;;;;;;4934984;29;20184;-71
2023/09/07 08:12:02;;;;;;;22.03;5.40;;;21.20;71.00;;;;;;4935015;29;20220;-72
2023/09/07 08:14:30;;;;;;;19.63;5.30;;;21.20;71.00;;;;;;4934956;29;20267;-72
2023/09/07 08:16:58;;;;;;;20.53;4.83;;;21.20;70.70;;;;;;4929781;29;20670;-73
2023/09/07 08:19:27;;;;;;;16.90;5.20;;;21.10;70.80;;;;;;4931480;29;20196;-72
2023/09/07 08:21:55;;;;;;;18.53;5.33;;;21.20;71.10;;;;;;4934712;29;20187;-71
2023/09/07 08:24:22;;;;;;;21.23;5.93;;;21.10;71.10;;;;;;4934443;29;20654;-72
2023/09/07 08:26:54;;;;;;;15.30;5.00;;;21.10;71.20;;;;;;4937136;29;20222;-71
2023/09/07 08:29:24;;;;;;;17.13;5.80;;;21.10;71.20;;;;;;4936679;29;20188;-72
2023/09/07 08:31:52;;;;;;;19.23;5.67;;;21.10;71.40;;;;;;4934295;29;20188;-72
2023/09/07 08:34:21;;;;;;;18.40;5.13;;;21.00;71.20;;;;;;4926171;29;20270;-73
2023/09/07 08:36:50;;;;;;;17.67;5.13;;;21.10;71.00;;;;;;4929537;29;20177;-72
2023/09/07 08:39:19;;;;;;;17.43;5.43;;;21.10;71.10;;;;;;4936110;29;20190;-72
2023/09/07 08:41:47;;;;;;;21.80;5.20;;;21.00;71.10;;;;;;4932454;29;20266;-73
2023/09/07 08:44:17;;;;;;;12.67;4.67;;;21.10;71.20;;;;;;4935407;29;20188;-72
2023/09/07 08:46:45;;;;;;;15.37;4.80;;;21.00;71.20;;;;;;4931905;29;20255;-72
2023/09/07 08:49:13;;;;;;;21.10;4.97;;;21.10;71.20;;;;;;4936390;29;20223;-73
2023/09/07 08:51:40;;;;;;;14.23;5.20;;;21.10;71.10;;;;;;4935449;29;20211;-71
2023/09/07 08:54:10;;;;;;;15.73;4.93;;;21.10;71.00;;;;;;4932262;29;20597;-72
2023/09/07 08:56:37;;;;;;;17.93;4.83;;;21.10;70.90;;;;;;4938676;29;20182;-71
2023/09/07 08:59:05;;;;;;;20.27;5.47;;;21.10;70.80;;;;;;4939597;29;20607;-73
2023/09/07 09:01:32;;;;;;;22.37;5.57;;;21.10;70.70;;;;;;4941627;29;20196;-74
2023/09/07 09:04:00;;;;;;;20.20;4.90;;;21.10;70.70;;;;;;4952374;29;20184;-70
2023/09/07 09:06:29;;;;;;;15.50;5.07;;;21.10;70.50;;;;;;4951374;29;20223;-68
2023/09/07 09:08:57;;;;;;;16.00;4.90;;;21.20;70.30;;;;;;4950799;29;20176;-69
2023/09/07 09:11:27;;;;;;;15.67;5.03;;;21.20;70.10;;;;;;4948479;29;20203;-71
2023/09/07 09:13:55;;;;;;;19.00;5.23;;;21.20;70.30;;;;;;4939900;29;20176;-72
2023/09/07 09:16:22;;;;;;;13.33;4.93;;;21.20;70.40;;;;;;4941072;29;20842;-72
2023/09/07 09:18:55;;;;;;;20.57;6.07;;;21.20;70.30;;;;;;4940484;29;20188;-71
2023/09/07 09:21:24;;;;;;;15.20;5.70;;;21.20;70.60;;;;;;4937132;29;20196;-71
2023/09/07 09:23:54;;;;;;;16.57;5.40;;;21.20;70.50;;;;;;4936928;29;20198;-71
2023/09/07 09:26:23;;;;;;;22.67;5.63;;;21.20;70.40;;;;;;4934477;29;20234;-73
2023/09/07 09:28:52;;;;;;;16.37;5.43;;;21.30;70.50;;;;;;4936232;29;20180;-71
2023/09/07 09:31:21;;;;;;;17.63;5.40;;;21.30;70.50;;;;;;4936910;29;20242;-71
2023/09/07 09:33:51;;;;;;;19.57;5.63;;;21.30;70.20;;;;;;4922743;29;20513;-72
2023/09/07 09:36:19;;;;;;;14.50;4.93;;;21.30;70.10;;;;;;4919215;29;20192;-71
2023/09/07 09:38:55;;;;;;;17.37;5.70;;;21.30;70.20;;;;;;4917093;29;20275;-70
2023/09/07 09:41:23;;;;;;;15.80;5.03;;;21.20;70.10;;;;;;4919576;29;20549;-73
2023/09/07 09:43:53;;;;;;;14.43;5.03;;;21.30;70.00;;;;;;4917615;29;20176;-71
2023/09/07 09:46:21;;;;;;;15.00;4.80;;;21.30;69.80;;;;;;4919091;29;20228;-72
2023/09/07 09:48:49;;;;;;;20.97;5.70;;;21.20;69.90;;;;;;4916163;29;20195;-71
2023/09/07 09:51:18;;;;;;;15.17;6.10;;;21.30;70.00;;;;;;4916873;29;20311;-72
2023/09/07 09:53:46;;;;;;;20.63;6.03;;;21.20;70.10;;;;;;4915947;29;20188;-71
2023/09/07 09:56:13;;;;;;;12.30;5.50;;;21.20;69.90;;;;;;4916883;29;20192;-73
2023/09/07 09:58:40;;;;;;;16.80;5.83;;;21.20;69.80;;;;;;4916838;29;20177;-72
2023/09/07 10:01:09;;;;;;;17.87;5.40;;;21.20;69.60;;;;;;4916876;29;20180;-71
2023/09/07 10:03:48;;;;;;;17.17;6.30;;;21.20;69.60;;;;;;4916475;29;20187;-72
2023/09/07 10:06:25;;;;;;;15.77;4.67;;;21.30;69.20;;;;;;4918967;29;20580;-73
2023/09/07 10:09:17;;;;;;;18.90;5.70;;;21.30;68.80;;;;;;4900142;29;20194;-73
2023/09/07 10:11:51;;;;;;;12.97;6.13;;;21.30;68.90;;;;;;4903925;29;20670;-72
2023/09/07 10:14:18;;;;;;;16.17;5.73;;;21.30;68.40;;;;;;4921495;29;20868;-71
2023/09/07 10:16:52;;;;;;;18.97;6.30;;;21.30;68.10;;;;;;4916414;29;20189;-72
2023/09/07 10:19:24;;;;;;;21.77;7.17;;;21.40;67.80;;;;;;4922109;29;20824;-73
2023/09/07 10:21:55;;;;;;;18.80;7.60;;;21.40;67.50;;;;;;4919268;29;20197;-72
2023/09/07 10:24:35;;;;;;;13.67;6.70;;;21.50;67.00;;;;;;4915136;29;20188;-72
2023/09/07 10:27:06;;;;;;;12.97;6.83;;;21.50;66.70;;;;;;4914887;29;20216;-71
2023/09/07 10:29:54;;;;;;;18.73;8.93;;;21.60;66.20;;;;;;4914089;29;20248;-72
2023/09/07 10:32:21;;;;;;;17.90;7.63;;;21.80;64.70;;;;;;4915444;29;20207;-72
2023/09/07 10:34:48;;;;;;;18.73;8.77;;;21.80;64.50;;;;;;4914994;29;20248;-72
2023/09/07 10:37:16;;;;;;;18.87;7.83;;;21.90;64.20;;;;;;4914789;29;20276;-71
2023/09/07 10:39:45;;;;;;;14.03;7.13;;;22.00;63.80;;;;;;4917217;29;20241;-73
2023/09/07 10:42:23;;;;;;;18.27;7.57;;;22.00;63.40;;;;;;4918862;29;20196;-72
2023/09/07 10:44:51;;;;;;;16.23;7.53;;;22.00;63.70;;;;;;4917467;29;20244;-72
2023/09/07 10:47:19;;;;;;;12.93;6.73;;;22.00;63.20;;;;;;4915290;29;20562;-72
2023/09/07 10:49:46;;;;;;;15.60;6.77;;;22.10;62.80;;;;;;4917200;29;20531;-72
2023/09/07 10:52:14;;;;;;;17.70;6.77;;;22.20;62.40;;;;;;4917509;29;20189;-71
2023/09/07 10:54:41;;;;;;;10.63;5.67;;;22.20;62.10;;;;;;4917991;29;20593;-72
2023/09/07 10:57:17;;;;;;;14.10;6.70;;;22.30;61.50;;;;;;4917854;29;20191;-72
2023/09/07 10:59:47;;;;;;;19.00;6.90;;;22.30;61.00;;;;;;4918055;29;20209;-73
2023/09/07 11:02:15;;;;;;;13.93;6.70;;;22.60;59.20;;;;;;4918503;29;20192;-72
2023/09/07 11:04:43;;;;;;;14.37;6.77;;;22.80;58.50;;;;;;4918653;29;20197;-72
2023/09/07 11:07:11;;;;;;;15.37;6.83;;;22.80;58.10;;;;;;4914876;29;20220;-72
2023/09/07 11:09:45;;;;;;;18.60;8.10;;;22.80;57.30;;;;;;4917862;29;20233;-72
2023/09/07 11:12:15;;;;;;;16.83;8.90;;;22.80;56.70;;;;;;4916335;29;20184;-71
2023/09/07 11:14:42;;;;;;;16.67;9.70;;;23.00;55.20;;;;;;4914587;29;20272;-73
2023/09/07 11:17:10;;;;;;;23.67;12.60;;;23.20;54.70;;;;;;4912586;29;20647;-71
2023/09/07 11:19:37;;;;;;;29.03;15.43;;;23.30;53.40;;;;;;4918751;29;20240;-71
2023/09/07 11:22:05;;;;;;;30.00;17.80;;;23.60;52.10;;;;;;4915630;29;20236;-72
2023/09/07 11:24:35;;;;;;;36.87;21.37;;;23.80;51.30;;;;;;4917685;29;20283;-71
2023/09/07 11:27:02;;;;;;;43.03;24.67;;;23.90;50.10;;;;;;4914935;29;20221;-70
2023/09/07 11:29:32;;;;;;;39.67;24.77;;;24.00;49.80;;;;;;4918294;29;20208;-71
2023/09/07 11:32:13;;;;;;;37.27;24.40;;;24.00;49.40;;;;;;4917628;29;20256;-71
2023/09/07 11:34:54;;;;;;;32.10;21.20;;;24.20;48.70;;;;;;4926378;29;20590;-72
2023/09/07 11:37:25;;;;;;;31.67;20.00;;;24.30;48.10;;;;;;4934496;29;20223;-71
2023/09/07 11:39:53;;;;;;;27.77;16.57;;;24.40;47.40;;;;;;4936277;29;20554;-71
2023/09/07 11:42:20;;;;;;;25.50;15.90;;;24.50;46.80;;;;;;4935135;29;20204;-72
2023/09/07 11:44:48;;;;;;;21.27;14.13;;;24.60;46.70;;;;;;4919226;29;20192;-73
2023/09/07 11:47:16;;;;;;;25.40;12.30;;;24.70;46.10;;;;;;4936478;29;20220;-68
2023/09/07 11:49:43;;;;;;;19.07;12.10;;;24.80;45.70;;;;;;4933570;29;20192;-72
2023/09/07 11:52:10;;;;;;;17.20;9.83;;;24.80;45.80;;;;;;4933993;29;20195;-72
2023/09/07 11:54:38;;;;;;;14.53;8.00;;;24.80;45.50;;;;;;4934499;29;20188;-70
2023/09/07 11:57:05;;;;;;;14.20;6.53;;;24.70;45.40;;;;;;4931773;29;20192;-70
2023/09/07 11:59:34;;;;;;;10.83;6.67;;;24.90;44.40;;;;;;4936993;29;20188;-71
2023/09/07 12:02:01;;;;;;;9.50;6.20;;;24.90;44.50;;;;;;4933602;29;20251;-72
2023/09/07 12:04:28;;;;;;;10.50;5.30;;;24.90;44.60;;;;;;4935944;29;20196;-72
2023/09/07 12:06:56;;;;;;;9.03;4.87;;;24.90;44.40;;;;;;4933951;29;20212;-72
2023/09/07 12:09:23;;;;;;;5.57;4.40;;;24.90;44.60;;;;;;4934068;29;20196;-71
2023/09/07 12:11:51;;;;;;;11.93;4.10;;;24.90;44.60;;;;;;4931269;29;20663;-71
2023/09/07 12:14:18;;;;;;;6.70;3.40;;;24.90;44.30;;;;;;4935867;29;20180;-73
2023/09/07 12:16:45;;;;;;;5.07;3.43;;;25.00;44.30;;;;;;4935194;29;20544;-72
2023/09/07 12:19:12;;;;;;;7.40;4.07;;;24.90;44.50;;;;;;4936119;29;20195;-71
2023/09/07 12:21:41;;;;;;;6.97;3.70;;;24.90;44.20;;;;;;4935706;29;20208;-70
2023/09/07 12:24:12;;;;;;;4.37;3.07;;;25.00;44.00;;;;;;4932931;29;20272;-72
2023/09/07 12:26:39;;;;;;;6.20;3.13;;;25.10;43.70;;;;;;4933877;29;20295;-69
2023/09/07 12:29:07;;;;;;;5.07;2.93;;;25.20;43.30;;;;;;4933776;29;20650;-71
2023/09/07 12:31:35;;;;;;;10.20;2.93;;;25.30;43.10;;;;;;4935433;29;20263;-72
2023/09/07 12:34:02;;;;;;;14.53;2.93;;;25.10;43.00;;;;;;4934409;29;20192;-72
2023/09/07 12:36:29;;;;;;;15.23;2.70;;;24.50;44.90;;;;;;4934763;29;20717;-71
2023/09/07 12:39:01;;;;;;;18.70;2.70;;;24.00;46.70;;;;;;4936152;29;20197;-71
2023/09/07 12:41:30;;;;;;;13.10;2.30;;;23.60;48.30;;;;;;4935727;29;20200;-73
2023/09/07 12:44:00;;;;;;;13.03;2.10;;;23.40;49.50;;;;;;4932327;29;20283;-71
2023/09/07 12:46:28;;;;;;;11.43;1.80;;;23.20;50.40;;;;;;4935642;29;20230;-73
2023/09/07 12:48:55;;;;;;;13.10;2.10;;;23.10;51.00;;;;;;4931721;29;20283;-74